Weather at Slaný Airport

Public forecast

Using degrees Celsius for public forecast. Weather courtesy of forecast.io.

Closest aviation weather report (METAR) to Slaný Airport

Closest report is Václav Havel Airport Prague, 9.6 nm (17.8 km) SE. Retrieved 2021/09/28 19:30 UTC (18 minutes ago):

LKPR 281930Z 01005KT 9999 SCT037 BKN049 13/12 Q1022 NOSIG

Closest aviation forecast (TAF) to Slaný Airport

Closest forecast is Václav Havel Airport Prague, 9.6 nm (17.8 km) SE. Retrieved 2021/09/28 18:26 UTC (1 hour ago):

TAF LKPR 281700Z 2818/3000 36008KT 9999 SCT040 BECMG 2823/2901 VRB02KT 3000 BR BKN015 TEMPO 2901/2907 0500 FG BKN001 BECMG 2907/2909 21010KT 9999 BKN027 TEMPO 2911/2914 7000 -RA BKN013 TEMPO 2914/2919 7000 SHRA SCT009TCU BKN014 BECMG 2919/2921 CAVOK